Time;durP1;ratioP1;P1;durP2;ratioP2;P2;SDS_P1;SDS_P2;PMS_P1;PMS_P2;Temp;Humidity;BMP_temperature;BMP_pressure;BME280_temperature;BME280_humidity;BME280_pressure;Samples;Min_cycle;Max_cycle;Signal;HPM_P1;HPM_P2
2023/02/16 00:00:22;;;;;;;46.50;19.20;;;;;;;1.83;100.00;102224.16;4994174;28;20038;-79
2023/02/16 00:02:48;;;;;;;42.60;17.50;;;;;;;1.78;100.00;102227.81;4974410;28;20905;-79
2023/02/16 00:05:24;;;;;;;41.72;18.80;;;;;;;1.74;100.00;102227.09;4976200;28;20449;-79
2023/02/16 00:07:51;;;;;;;41.38;17.30;;;;;;;1.71;100.00;102222.09;5009231;28;21650;-79
2023/02/16 00:10:16;;;;;;;34.95;17.83;;;;;;;1.66;100.00;102224.03;5008794;28;20046;-78
2023/02/16 00:15:26;;;;;;;42.53;19.23;;;;;;;1.66;100.00;102219.75;5011174;28;20033;-80
2023/02/16 00:17:53;;;;;;;41.55;18.90;;;;;;;1.63;100.00;102219.03;4994201;28;20037;-78
2023/02/16 00:20:19;;;;;;;39.67;17.92;;;;;;;1.60;100.00;102217.44;4993473;28;20442;-79
2023/02/16 00:22:44;;;;;;;41.83;18.98;;;;;;;1.61;100.00;102215.72;5009436;28;20093;-79
2023/02/16 00:25:10;;;;;;;38.97;18.27;;;;;;;1.58;100.00;102216.66;4975601;28;20038;-79
2023/02/16 00:27:36;;;;;;;45.35;17.95;;;;;;;1.54;100.00;102222.78;5009607;28;20092;-78
2023/02/16 00:30:12;;;;;;;39.20;18.13;;;;;;;1.50;100.00;102214.41;4997741;28;20034;-79
2023/02/16 00:32:39;;;;;;;48.97;20.67;;;;;;;1.48;100.00;102211.09;4989371;28;20026;-80
2023/02/16 00:35:14;;;;;;;46.33;18.80;;;;;;;1.43;100.00;102217.28;4991396;28;20065;-79
2023/02/16 00:37:40;;;;;;;37.25;19.00;;;;;;;1.39;100.00;102216.56;5002620;28;20046;-78
2023/02/16 00:40:06;;;;;;;46.42;21.02;;;;;;;1.39;100.00;102218.31;5005733;28;20025;-79
2023/02/16 00:42:33;;;;;;;48.63;21.00;;;;;;;1.41;100.00;102203.72;4994245;28;20498;-79
2023/02/16 00:45:00;;;;;;;48.38;21.35;;;;;;;1.43;100.00;102196.81;5013086;28;21493;-79
2023/02/16 00:47:37;;;;;;;47.58;18.77;;;;;;;1.40;100.00;102202.09;4989373;28;20030;-79
2023/02/16 00:50:15;;;;;;;51.33;21.00;;;;;;;1.32;100.00;102202.41;5007017;28;20113;-79
2023/02/16 00:52:45;;;;;;;43.22;19.88;;;;;;;1.28;100.00;102205.94;4994436;28;20698;-78
2023/02/16 00:55:19;;;;;;;45.00;19.23;;;;;;;1.23;100.00;102202.75;4993850;28;20035;-79
2023/02/16 00:57:49;;;;;;;40.75;19.17;;;;;;;1.21;100.00;102204.56;5014233;28;20425;-78
2023/02/16 01:00:19;;;;;;;49.45;19.17;;;;;;;1.17;100.00;102206.41;5019158;28;20038;-79
2023/02/16 01:02:47;;;;;;;42.33;19.50;;;;;;;1.13;100.00;102202.28;4989855;28;20034;-79
2023/02/16 01:05:13;;;;;;;46.28;20.42;;;;;;;1.11;100.00;102207.47;4986999;28;20025;-78
2023/02/16 01:13:09;;;;;;;46.13;20.73;;;;;;;1.05;100.00;102194.91;4989129;28;20124;-79
2023/02/16 01:15:35;;;;;;;47.40;20.55;;;;;;;1.01;100.00;102198.47;5008024;28;20847;-79
2023/02/16 01:18:00;;;;;;;39.47;19.52;;;;;;;0.98;100.00;102196.06;4992038;28;20030;-79
2023/02/16 01:20:27;;;;;;;46.90;20.67;;;;;;;0.95;100.00;102193.63;4991722;28;20056;-79
2023/02/16 01:22:52;;;;;;;43.60;19.27;;;;;;;0.91;100.00;102189.53;5008202;28;20029;-79
2023/02/16 01:25:18;;;;;;;41.88;19.75;;;;;;;0.89;100.00;102201.53;4990996;28;20144;-79
2023/02/16 01:27:46;;;;;;;45.33;19.23;;;;;;;0.86;100.00;102188.84;4993431;28;20022;-79
2023/02/16 01:30:17;;;;;;;47.20;20.05;;;;;;;0.84;100.00;102190.66;4990367;28;20046;-79
2023/02/16 01:32:50;;;;;;;42.95;19.20;;;;;;;0.81;100.00;102190.75;4998735;28;20034;-78
2023/02/16 01:35:23;;;;;;;43.95;20.58;;;;;;;0.75;100.00;102177.34;4985932;28;20033;-79
2023/02/16 01:37:49;;;;;;;45.25;20.33;;;;;;;0.73;100.00;102184.22;5020791;28;20040;-79
2023/02/16 01:40:45;;;;;;;49.15;20.63;;;;;;;0.71;100.00;102188.53;5004279;28;20568;-78
2023/02/16 01:43:20;;;;;;;50.72;19.65;;;;;;;0.67;100.00;102197.22;4943050;28;20038;-79
2023/02/16 01:45:54;;;;;;;50.22;20.85;;;;;;;0.65;100.00;102195.63;4989220;28;20042;-79
2023/02/16 01:48:25;;;;;;;50.15;21.67;;;;;;;0.62;100.00;102196.53;4987981;28;20034;-79
2023/02/16 01:51:25;;;;;;;39.75;19.35;;;;;;;0.58;100.00;102187.34;5005893;28;20048;-78
2023/02/16 01:54:04;;;;;;;51.58;22.00;;;;;;;0.56;100.00;102191.69;4990415;28;20072;-78
2023/02/16 01:56:40;;;;;;;54.05;22.15;;;;;;;0.53;100.00;102192.63;5010468;28;20038;-78
2023/02/16 01:59:18;;;;;;;46.38;20.95;;;;;;;0.52;100.00;102190.97;4988744;28;20040;-79
2023/02/16 02:01:52;;;;;;;58.15;21.85;;;;;;;0.53;100.00;102187.53;5002520;28;20104;-78
2023/02/16 02:07:20;;;;;;;44.60;20.40;;;;;;;0.50;100.00;102192.75;4984638;28;20045;-79
2023/02/16 02:10:00;;;;;;;44.38;20.23;;;;;;;0.48;100.00;102183.47;4972379;28;20042;-79
2023/02/16 02:12:51;;;;;;;44.65;21.00;;;;;;;0.47;100.00;102176.69;4977088;28;20033;-79
2023/02/16 02:15:22;;;;;;;44.58;20.50;;;;;;;0.43;100.00;102175.16;4985889;28;20037;-79
2023/02/16 02:17:48;;;;;;;46.92;20.27;;;;;;;0.41;100.00;102180.31;4991787;28;20041;-80
2023/02/16 02:20:14;;;;;;;52.40;21.00;;;;;;;0.38;100.00;102173.59;4978407;28;20030;-79
2023/02/16 02:26:02;;;;;;;49.70;21.90;;;;;;;0.31;100.00;102169.63;5006089;28;20048;-79
2023/02/16 02:28:35;;;;;;;43.10;19.73;;;;;;;0.28;100.00;102172.25;4983644;28;20030;-78
2023/02/16 02:31:26;;;;;;;49.03;21.63;;;;;;;0.25;100.00;102164.75;4988093;28;20038;-79
2023/02/16 02:34:09;;;;;;;54.40;22.90;;;;;;;0.28;100.00;102167.16;5001663;28;20164;-78
2023/02/16 02:36:39;;;;;;;48.78;22.95;;;;;;;0.23;100.00;102155.47;5004521;28;20121;-80
2023/02/16 02:39:32;;;;;;;49.10;20.88;;;;;;;0.18;100.00;102158.19;5005179;28;20553;-79
2023/02/16 02:42:30;;;;;;;45.08;21.10;;;;;;;0.16;100.00;102147.22;4985724;28;20042;-78
2023/02/16 02:45:04;;;;;;;51.70;22.23;;;;;;;0.13;100.00;102134.56;5004938;28;20092;-78
2023/02/16 02:47:43;;;;;;;48.75;21.13;;;;;;;0.09;100.00;102140.66;5010252;28;20117;-79
2023/02/16 02:50:33;;;;;;;57.28;21.65;;;;;;;0.07;100.00;102142.44;4984275;28;20802;-78
2023/02/16 02:53:02;;;;;;;57.63;22.67;;;;;;;0.06;100.00;102135.66;4989742;28;20041;-79
2023/02/16 03:01:04;;;;;;;52.53;22.38;;;;;;;0.06;100.00;102130.56;5003504;28;20069;-79
2023/02/16 03:03:36;;;;;;;64.68;24.02;;;;;;;0.08;100.00;102124.53;4989270;28;20483;-79
2023/02/16 03:06:09;;;;;;;53.15;22.38;;;;;;;0.06;100.00;102120.34;5004811;28;20038;-78
2023/02/16 03:08:38;;;;;;;58.33;25.23;;;;;;;0.06;100.00;102121.22;4990358;28;20034;-79
2023/02/16 03:13:58;;;;;;;58.72;24.42;;;;;;;-0.01;100.00;102118.03;5005480;28;20485;-78
2023/02/16 03:16:36;;;;;;;53.05;22.55;;;;;;;-0.01;100.00;102119.75;4989666;28;20081;-78
2023/02/16 03:30:11;;;;;;;60.00;26.23;;;;;;;-0.06;100.00;102098.69;5005076;28;20040;-78
2023/02/16 03:32:38;;;;;;;56.55;23.75;;;;;;;-0.01;100.00;102095.06;5011309;28;20059;-79
2023/02/16 03:35:04;;;;;;;53.45;23.55;;;;;;;-0.02;100.00;102108.75;5008562;28;20030;-78
2023/02/16 03:37:30;;;;;;;58.38;24.70;;;;;;;-0.05;100.00;102105.47;5009459;28;20037;-79
2023/02/16 03:40:29;;;;;;;57.45;25.00;;;;;;;-0.07;100.00;102118.25;4992635;28;20042;-77
2023/02/16 03:42:49;;;;;;;63.55;23.63;;;;;;;-0.10;100.00;102120.91;5008126;28;20052;-78
2023/02/16 03:45:15;;;;;;;55.58;24.52;;;;;;;-0.04;100.00;102114.75;5009813;28;20470;-78
2023/02/16 03:47:40;;;;;;;58.65;25.80;;;;;;;-0.10;100.00;102126.00;4994205;28;20037;-78
2023/02/16 03:50:06;;;;;;;55.67;24.13;;;;;;;-0.14;100.00;102119.34;5010140;28;20030;-78
2023/02/16 03:52:32;;;;;;;56.03;24.25;;;;;;;-0.18;100.00;102117.00;4990818;28;20682;-78
2023/02/16 03:54:59;;;;;;;61.38;24.35;;;;;;;-0.21;100.00;102116.22;5004763;28;20030;-79
2023/02/16 03:57:24;;;;;;;64.38;26.05;;;;;;;-0.09;100.00;102109.00;4979184;28;20026;-78
2023/02/16 03:59:52;;;;;;;70.43;29.00;;;;;;;-0.04;100.00;102112.22;5011606;28;20121;-78
2023/02/16 04:02:17;;;;;;;71.57;27.38;;;;;;;-0.07;100.00;102114.88;5007802;28;20077;-78
2023/02/16 04:04:43;;;;;;;68.72;26.45;;;;;;;-0.06;100.00;102112.28;4993078;28;20371;-79
2023/02/16 04:07:08;;;;;;;62.28;26.60;;;;;;;0.01;100.00;102117.16;4989230;28;20042;-79
2023/02/16 04:09:34;;;;;;;67.70;27.77;;;;;;;0.22;100.00;102118.09;4982533;28;20046;-78
2023/02/16 04:14:43;;;;;;;64.35;25.40;;;;;;;0.13;100.00;102109.91;5010340;28;20034;-78
2023/02/16 04:17:09;;;;;;;67.18;26.40;;;;;;;0.22;100.00;102101.06;5010182;28;20042;-79
2023/02/16 04:19:34;;;;;;;56.17;25.17;;;;;;;0.21;100.00;102114.72;5009416;28;20049;-80
2023/02/16 04:22:00;;;;;;;59.50;24.88;;;;;;;0.24;100.00;102119.69;4993507;28;20078;-79
2023/02/16 04:24:25;;;;;;;59.40;26.77;;;;;;;0.20;100.00;102115.59;4995553;28;20041;-78
2023/02/16 04:26:51;;;;;;;66.20;26.45;;;;;;;0.16;100.00;102112.31;4991978;28;20064;-79
2023/02/16 04:29:16;;;;;;;71.93;27.45;;;;;;;0.15;100.00;102112.38;4989934;28;20034;-78
2023/02/16 04:31:42;;;;;;;70.18;26.65;;;;;;;0.17;100.00;102118.25;5009543;28;21712;-78
2023/02/16 04:34:07;;;;;;;60.80;25.63;;;;;;;0.08;100.00;102111.78;5009164;28;20038;-79
2023/02/16 04:36:33;;;;;;;59.20;26.52;;;;;;;0.02;100.00;102121.34;5008446;28;20411;-79
2023/02/16 04:38:59;;;;;;;62.38;26.15;;;;;;;-0.02;100.00;102121.50;4991473;28;20034;-78
2023/02/16 04:41:25;;;;;;;72.22;28.65;;;;;;;0.05;100.00;102123.81;4977307;28;20113;-79
2023/02/16 04:43:51;;;;;;;59.92;27.02;;;;;;;0.08;100.00;102119.44;5010132;28;20044;-78
2023/02/16 04:46:18;;;;;;;61.38;27.27;;;;;;;0.02;100.00;102119.66;4988350;28;20038;-79
2023/02/16 04:48:43;;;;;;;63.80;26.42;;;;;;;0.15;100.00;102108.13;4992612;28;20119;-78
2023/02/16 04:51:09;;;;;;;61.60;25.35;;;;;;;0.20;100.00;102105.38;4988646;28;20705;-79
2023/02/16 04:53:34;;;;;;;61.33;25.63;;;;;;;0.29;100.00;102110.16;4977785;28;20127;-79
2023/02/16 04:56:00;;;;;;;64.97;27.00;;;;;;;0.34;100.00;102120.16;4974898;28;20030;-79
2023/02/16 04:58:25;;;;;;;65.90;27.02;;;;;;;0.40;100.00;102109.75;5010011;28;20399;-80
2023/02/16 05:00:51;;;;;;;68.32;26.73;;;;;;;0.28;100.00;102111.03;4992416;28;20112;-79
2023/02/16 05:03:16;;;;;;;58.67;24.88;;;;;;;0.39;100.00;102106.34;4981175;28;20034;-79
2023/02/16 05:05:42;;;;;;;68.57;25.95;;;;;;;0.38;100.00;102103.88;5004825;28;20126;-79
2023/02/16 05:08:07;;;;;;;66.00;27.38;;;;;;;0.37;100.00;102118.34;4995579;28;20461;-79
2023/02/16 05:10:33;;;;;;;64.65;27.17;;;;;;;0.34;100.00;102115.06;5023385;28;20033;-80
2023/02/16 05:15:43;;;;;;;60.28;26.13;;;;;;;0.28;100.00;102117.84;5008637;28;20121;-79
2023/02/16 05:18:09;;;;;;;66.07;28.40;;;;;;;0.23;100.00;102120.59;4992130;28;20104;-79
2023/02/16 05:23:19;;;;;;;68.07;27.17;;;;;;;0.33;100.00;102127.00;4988984;28;20380;-78
2023/02/16 05:25:45;;;;;;;63.97;26.63;;;;;;;0.21;100.00;102130.03;4987472;28;20045;-79
2023/02/16 05:28:10;;;;;;;63.70;26.63;;;;;;;0.16;100.00;102119.97;4992033;28;20038;-79
2023/02/16 05:30:36;;;;;;;67.28;27.88;;;;;;;0.16;100.00;102125.06;5008424;28;20030;-79
2023/02/16 05:33:01;;;;;;;59.90;25.63;;;;;;;0.15;100.00;102125.97;4988341;28;20433;-79
2023/02/16 05:35:27;;;;;;;63.05;27.10;;;;;;;0.19;100.00;102127.53;4988748;28;20137;-78
2023/02/16 05:37:52;;;;;;;52.45;24.40;;;;;;;0.14;100.00;102129.41;4988424;28;20115;-78
2023/02/16 05:40:18;;;;;;;62.10;25.98;;;;;;;0.25;100.00;102123.09;4989417;28;20041;-79
2023/02/16 05:42:43;;;;;;;66.25;25.77;;;;;;;0.23;100.00;102118.03;5005547;28;20384;-79
2023/02/16 05:45:09;;;;;;;53.15;23.98;;;;;;;0.37;100.00;102122.63;4990758;28;20083;-78
2023/02/16 05:47:34;;;;;;;57.80;25.02;;;;;;;0.33;100.00;102124.44;4975259;28;20018;-78
2023/02/16 05:50:00;;;;;;;62.42;26.02;;;;;;;0.38;100.00;102119.19;4992446;28;20108;-79
2023/02/16 05:52:25;;;;;;;67.50;25.65;;;;;;;0.34;100.00;102125.28;4990862;28;20033;-79
2023/02/16 05:54:51;;;;;;;65.32;26.55;;;;;;;0.48;100.00;102117.13;5009158;28;20045;-79
2023/02/16 05:57:16;;;;;;;61.47;24.67;;;;;;;0.56;100.00;102110.81;4989107;28;20676;-79
2023/02/16 05:59:42;;;;;;;69.18;27.35;;;;;;;0.61;100.00;102115.75;4990670;28;20034;-80
2023/02/16 06:02:08;;;;;;;68.05;26.40;;;;;;;0.65;100.00;102114.75;4991072;28;20394;-79
2023/02/16 06:04:34;;;;;;;64.25;24.55;;;;;;;0.72;100.00;102108.50;4993943;28;20041;-79
2023/02/16 06:07:00;;;;;;;65.72;26.60;;;;;;;0.70;100.00;102112.03;5005315;28;20050;-79
2023/02/16 06:09:26;;;;;;;62.75;25.52;;;;;;;0.69;100.00;102107.78;4994202;28;20022;-79
2023/02/16 06:11:51;;;;;;;62.35;26.65;;;;;;;0.71;100.00;102101.72;4991762;28;20498;-79
2023/02/16 06:14:19;;;;;;;61.83;26.23;;;;;;;0.68;100.00;102116.34;4991841;28;20029;-79
2023/02/16 06:16:47;;;;;;;62.08;25.02;;;;;;;0.62;100.00;102124.22;4974344;28;20540;-79
2023/02/16 06:19:15;;;;;;;65.43;27.02;;;;;;;0.68;100.00;102109.53;5003540;28;20050;-79
2023/02/16 06:21:41;;;;;;;71.18;27.17;;;;;;;0.84;100.00;102099.53;4987428;28;20042;-80
2023/02/16 06:24:08;;;;;;;62.00;25.65;;;;;;;0.89;100.00;102097.63;4990403;28;20559;-79
2023/02/16 06:26:34;;;;;;;71.13;27.23;;;;;;;0.82;100.00;102110.69;4990173;28;20489;-79
2023/02/16 06:28:59;;;;;;;62.13;25.45;;;;;;;0.86;100.00;102109.69;4992365;28;20114;-81
2023/02/16 06:31:25;;;;;;;62.95;26.05;;;;;;;0.81;100.00;102122.66;4990142;28;20180;-81
2023/02/16 06:33:52;;;;;;;67.97;28.45;;;;;;;0.76;100.00;102129.66;4992559;28;20037;-79
2023/02/16 06:36:18;;;;;;;61.20;27.00;;;;;;;0.85;100.00;102120.78;4974122;28;20044;-80
2023/02/16 06:38:44;;;;;;;58.97;25.63;;;;;;;0.88;100.00;102108.72;4977656;28;20129;-80
2023/02/16 06:41:10;;;;;;;62.38;26.08;;;;;;;0.87;100.00;102109.63;4987075;28;20053;-79
2023/02/16 06:43:35;;;;;;;68.88;27.65;;;;;;;0.96;100.00;102099.03;4998773;28;20034;-79
2023/02/16 06:46:01;;;;;;;61.75;24.85;;;;;;;1.05;100.00;102102.09;5022680;28;20573;-79
2023/02/16 06:48:26;;;;;;;60.17;25.90;;;;;;;1.07;100.00;102095.22;4990406;28;20045;-79
2023/02/16 06:50:52;;;;;;;69.53;26.98;;;;;;;0.99;100.00;102099.81;4974284;28;20502;-79
2023/02/16 06:53:17;;;;;;;56.78;25.60;;;;;;;1.01;100.00;102101.41;5008953;28;20462;-79
2023/02/16 06:55:43;;;;;;;60.53;26.75;;;;;;;1.04;100.00;102105.56;4992893;28;20165;-79
2023/02/16 06:58:08;;;;;;;57.45;26.10;;;;;;;1.05;100.00;102108.03;4979102;28;20038;-80
2023/02/16 07:00:34;;;;;;;67.03;29.17;;;;;;;1.08;100.00;102105.38;4993879;28;20050;-79
2023/02/16 07:03:00;;;;;;;68.80;27.00;;;;;;;1.20;100.00;102109.13;4995531;28;20030;-79
2023/02/16 07:05:25;;;;;;;68.80;30.10;;;;;;;1.24;100.00;102104.75;4991727;28;20054;-80
2023/02/16 07:07:51;;;;;;;63.88;28.88;;;;;;;1.22;100.00;102120.13;4993072;28;20042;-80
2023/02/16 07:10:18;;;;;;;65.35;27.88;;;;;;;1.27;100.00;102117.41;5012559;28;20050;-79
2023/02/16 07:12:44;;;;;;;63.50;28.17;;;;;;;1.29;100.00;102110.50;5008273;28;20106;-79
2023/02/16 07:15:10;;;;;;;67.00;29.35;;;;;;;1.23;100.00;102111.59;5010200;28;20402;-80
2023/02/16 07:17:36;;;;;;;66.72;28.77;;;;;;;1.22;100.00;102104.78;4978930;28;20038;-80
2023/02/16 07:20:03;;;;;;;71.20;28.67;;;;;;;1.19;100.00;102112.59;4994775;28;20034;-80
2023/02/16 07:22:28;;;;;;;65.10;28.27;;;;;;;1.25;100.00;102114.91;4994180;28;20034;-80
2023/02/16 07:24:56;;;;;;;63.58;27.25;;;;;;;1.25;100.00;102124.31;4994561;28;20060;-81
2023/02/16 07:27:22;;;;;;;63.03;26.15;;;;;;;1.23;100.00;102121.81;4977267;28;20037;-79
2023/02/16 07:29:47;;;;;;;70.55;28.13;;;;;;;1.32;100.00;102121.44;5016997;28;20478;-80
2023/02/16 07:32:13;;;;;;;59.45;27.95;;;;;;;1.44;100.00;102112.41;4987956;28;20041;-78
2023/02/16 07:34:38;;;;;;;66.43;29.30;;;;;;;1.49;100.00;102117.34;4987407;28;20038;-78
2023/02/16 07:37:04;;;;;;;67.60;28.92;;;;;;;1.53;100.00;102109.47;4992936;28;20046;-79
2023/02/16 07:39:29;;;;;;;60.65;25.88;;;;;;;1.53;100.00;102118.88;4976824;28;20792;-79
2023/02/16 07:41:55;;;;;;;59.05;26.92;;;;;;;1.66;100.00;102114.06;4990242;28;20049;-79
2023/02/16 07:44:24;;;;;;;62.53;28.20;;;;;;;1.63;100.00;102119.31;4990491;28;20649;-78
2023/02/16 07:46:49;;;;;;;66.78;28.13;;;;;;;1.63;100.00;102130.34;4988003;28;20089;-79
2023/02/16 07:49:15;;;;;;;72.50;28.45;;;;;;;1.79;100.00;102127.97;4991620;28;20419;-79
2023/02/16 07:51:40;;;;;;;65.97;28.02;;;;;;;1.80;100.00;102126.25;4990087;28;20038;-80
2023/02/16 07:54:06;;;;;;;63.58;27.45;;;;;;;1.84;100.00;102128.59;5007189;28;20045;-79
2023/02/16 07:56:33;;;;;;;65.25;28.95;;;;;;;2.04;100.00;102124.34;4988616;28;20038;-81
2023/02/16 07:58:59;;;;;;;60.83;27.95;;;;;;;1.99;100.00;102119.41;4988182;28;20542;-80
2023/02/16 08:01:26;;;;;;;67.78;27.30;;;;;;;2.18;100.00;102119.41;4989879;28;20044;-80
2023/02/16 08:03:52;;;;;;;58.63;26.05;;;;;;;2.30;100.00;102115.50;5003141;28;20042;-80
2023/02/16 08:06:19;;;;;;;51.40;24.52;;;;;;;2.34;100.00;102117.00;4992742;28;20045;-79
2023/02/16 08:08:45;;;;;;;60.15;24.55;;;;;;;2.43;100.00;102116.59;4988656;28;20458;-81
2023/02/16 08:11:19;;;;;;;60.50;26.23;;;;;;;2.44;100.00;102128.47;4989722;28;20065;-79
2023/02/16 08:13:45;;;;;;;59.28;24.50;;;;;;;2.61;100.00;102126.88;5004196;28;20042;-79
2023/02/16 08:16:14;;;;;;;55.72;24.50;;;;;;;2.64;100.00;102126.75;4993611;28;21995;-79
2023/02/16 08:18:43;;;;;;;58.30;24.40;;;;;;;2.73;100.00;102136.53;4998280;28;20034;-80
2023/02/16 08:21:12;;;;;;;59.67;25.15;;;;;;;2.87;100.00;102136.72;5027972;28;20048;-79
2023/02/16 08:23:40;;;;;;;61.67;26.77;;;;;;;3.00;100.00;102128.44;4996754;28;20045;-79
2023/02/16 08:26:10;;;;;;;63.47;25.13;;;;;;;3.05;100.00;102127.31;4998181;28;20052;-80
2023/02/16 08:28:44;;;;;;;64.25;25.45;;;;;;;3.10;100.00;102127.09;5008045;28;20026;-80
2023/02/16 08:31:11;;;;;;;59.67;25.98;;;;;;;3.10;99.80;102137.34;5011265;28;20068;-79
2023/02/16 08:33:36;;;;;;;60.08;25.30;;;;;;;3.28;99.99;102126.19;5006375;28;20034;-79
2023/02/16 08:36:03;;;;;;;57.80;24.35;;;;;;;3.42;99.36;102130.63;5027610;28;20040;-80
2023/02/16 08:38:28;;;;;;;52.97;25.27;;;;;;;3.50;98.65;102125.09;4975921;28;20037;-80
2023/02/16 08:40:54;;;;;;;64.82;25.35;;;;;;;3.88;97.52;102124.84;4996647;28;20069;-81
2023/02/16 08:43:21;;;;;;;57.80;24.95;;;;;;;4.12;96.04;102124.50;4996997;28;20394;-80
2023/02/16 08:45:46;;;;;;;59.67;24.80;;;;;;;4.09;95.15;102123.75;5012850;28;20038;-81
2023/02/16 08:48:12;;;;;;;55.83;23.27;;;;;;;3.85;95.91;102127.59;5011461;28;20026;-82
2023/02/16 08:50:45;;;;;;;62.58;24.63;;;;;;;3.70;96.90;102124.91;4991428;28;20538;-80
2023/02/16 08:53:12;;;;;;;54.45;25.38;;;;;;;3.60;97.92;102123.75;4999169;28;20486;-79
2023/02/16 08:55:38;;;;;;;55.05;25.27;;;;;;;3.59;98.75;102121.25;4999009;28;20133;-78
2023/02/16 08:58:04;;;;;;;59.70;24.83;;;;;;;3.64;98.29;102116.72;4986210;28;20075;-79
2023/02/16 09:00:33;;;;;;;55.78;24.73;;;;;;;3.78;97.92;102116.81;4992301;28;20042;-80
2023/02/16 09:02:59;;;;;;;56.47;24.70;;;;;;;3.89;97.86;102116.25;4994356;28;20036;-83
2023/02/16 09:05:25;;;;;;;53.67;23.38;;;;;;;3.97;97.15;102124.38;4996156;28;20096;-79
2023/02/16 09:07:51;;;;;;;55.40;24.80;;;;;;;3.90;97.52;102118.75;4999676;28;20042;-80
2023/02/16 09:10:17;;;;;;;52.92;24.83;;;;;;;3.97;98.60;102119.25;4989477;28;20046;-80
2023/02/16 09:12:47;;;;;;;52.15;23.92;;;;;;;3.99;99.27;102124.31;4992330;28;20026;-80
2023/02/16 09:15:13;;;;;;;51.25;23.05;;;;;;;4.05;99.16;102124.81;5010849;28;20029;-79
2023/02/16 09:17:38;;;;;;;58.83;25.98;;;;;;;4.20;98.58;102124.91;4982321;28;20375;-80
2023/02/16 09:20:05;;;;;;;60.70;25.20;;;;;;;4.27;97.89;102127.06;4992759;28;20390;-79
2023/02/16 09:22:31;;;;;;;51.83;24.50;;;;;;;4.34;97.57;102137.84;4999467;28;20133;-80
2023/02/16 09:24:57;;;;;;;54.08;24.05;;;;;;;4.36;97.45;102148.03;5009241;28;20034;-78
2023/02/16 09:27:22;;;;;;;48.70;23.95;;;;;;;4.35;97.22;102149.78;4990630;28;20034;-78
2023/02/16 09:29:48;;;;;;;54.17;23.02;;;;;;;4.34;97.79;102153.25;5010023;28;20553;-80
2023/02/16 09:32:14;;;;;;;55.00;24.50;;;;;;;4.47;98.60;102156.81;4994708;28;20041;-79
2023/02/16 09:34:40;;;;;;;51.47;23.58;;;;;;;4.48;97.61;102158.47;4993042;28;20418;-81
2023/02/16 09:37:06;;;;;;;54.10;24.73;;;;;;;4.62;96.60;102156.91;5004492;28;20077;-81
2023/02/16 09:39:32;;;;;;;54.78;23.77;;;;;;;4.62;96.30;102151.75;5010377;28;20033;-79
2023/02/16 09:42:05;;;;;;;50.08;24.55;;;;;;;4.67;97.00;102152.31;4993418;28;20141;-79
2023/02/16 09:44:53;;;;;;;46.33;22.95;;;;;;;4.84;97.03;102157.38;4978121;28;20584;-80
2023/02/16 09:47:28;;;;;;;53.03;24.35;;;;;;;4.86;96.02;102165.81;4992464;28;20045;-80
2023/02/16 09:49:57;;;;;;;53.30;24.90;;;;;;;4.94;95.14;102169.72;4993556;28;20053;-80
2023/02/16 09:52:39;;;;;;;51.58;23.08;;;;;;;5.01;94.83;102166.72;4977292;28;20048;-80
2023/02/16 09:55:10;;;;;;;49.40;23.45;;;;;;;4.98;94.33;102159.16;4991436;28;20041;-80
2023/02/16 09:58:06;;;;;;;55.47;23.80;;;;;;;4.98;95.46;102160.91;4999830;28;20030;-79
2023/02/16 10:00:32;;;;;;;52.60;24.90;;;;;;;4.94;95.87;102167.16;4971226;28;20049;-80
2023/02/16 10:03:17;;;;;;;50.42;24.85;;;;;;;5.00;96.26;102166.78;4991588;28;20105;-79
2023/02/16 10:05:58;;;;;;;49.15;23.80;;;;;;;4.97;96.41;102169.53;4955547;28;20680;-80
2023/02/16 10:08:23;;;;;;;53.88;25.10;;;;;;;4.95;97.09;102163.66;4991788;28;20029;-79
2023/02/16 10:14:04;;;;;;;59.60;25.27;;;;;;;5.16;96.15;102162.44;4972526;28;20041;-81
2023/02/16 10:16:33;;;;;;;56.03;25.45;;;;;;;5.24;96.42;102162.00;4981619;28;20041;-81
2023/02/16 10:19:03;;;;;;;50.28;23.80;;;;;;;5.26;96.22;102161.00;5028682;28;20081;-80
2023/02/16 10:21:30;;;;;;;52.60;24.38;;;;;;;5.12;97.20;102166.09;4993111;28;20041;-79
2023/02/16 10:24:06;;;;;;;55.50;24.88;;;;;;;5.22;98.23;102156.94;5021667;28;20089;-80
2023/02/16 10:26:45;;;;;;;55.67;26.13;;;;;;;5.29;97.13;102162.56;4986455;28;20044;-81
2023/02/16 10:29:17;;;;;;;53.17;25.17;;;;;;;5.23;97.99;102166.31;5005617;28;20033;-79
2023/02/16 10:32:18;;;;;;;57.67;25.52;;;;;;;5.17;98.95;102173.56;4994190;28;20046;-81
2023/02/16 10:34:49;;;;;;;54.50;25.05;;;;;;;5.22;99.11;102171.56;4994431;28;20042;-80
2023/02/16 10:37:15;;;;;;;52.92;25.42;;;;;;;5.28;99.90;102158.34;4990443;28;20038;-80
2023/02/16 10:39:50;;;;;;;62.67;25.23;;;;;;;5.51;99.47;102169.88;4994145;28;20132;-80
2023/02/16 10:42:42;;;;;;;53.60;25.08;;;;;;;5.66;99.07;102161.22;5012868;28;20045;-82
2023/02/16 10:45:34;;;;;;;52.92;23.58;;;;;;;5.78;99.12;102172.56;5009290;28;20057;-81
2023/02/16 10:48:00;;;;;;;55.60;24.02;;;;;;;5.89;98.35;102158.22;4994015;28;20034;-80
2023/02/16 10:50:36;;;;;;;54.88;24.45;;;;;;;6.10;98.02;102149.22;4978930;28;20038;-80
2023/02/16 10:53:38;;;;;;;48.92;24.75;;;;;;;6.19;97.81;102146.06;4995000;28;20042;-79
2023/02/16 10:56:35;;;;;;;57.58;24.55;;;;;;;6.21;98.40;102141.66;4961872;28;20044;-80
2023/02/16 10:59:06;;;;;;;52.22;25.52;;;;;;;6.32;98.69;102129.88;4962579;28;20049;-80
2023/02/16 11:01:37;;;;;;;64.43;25.55;;;;;;;6.52;98.49;102118.31;4991788;28;20045;-80
2023/02/16 11:04:03;;;;;;;53.53;25.15;;;;;;;6.47;97.75;102103.13;4981942;28;20033;-80
2023/02/16 11:06:29;;;;;;;64.20;25.42;;;;;;;6.54;97.10;102112.13;4978334;28;20066;-80
2023/02/16 11:08:59;;;;;;;49.65;23.88;;;;;;;6.68;97.22;102107.84;4993384;28;20176;-80
2023/02/16 11:11:27;;;;;;;54.92;25.80;;;;;;;6.72;98.28;102106.72;4990065;28;20469;-80
2023/02/16 11:14:04;;;;;;;54.05;24.65;;;;;;;6.78;98.93;102116.63;5013089;28;20042;-80
2023/02/16 11:16:30;;;;;;;55.08;26.45;;;;;;;6.69;99.26;102125.81;4988645;28;20034;-79
2023/02/16 11:18:59;;;;;;;53.33;24.70;;;;;;;6.80;100.00;102114.81;4985368;28;20403;-78
2023/02/16 11:21:46;;;;;;;58.75;26.33;;;;;;;6.80;100.00;102117.38;4987095;28;20503;-79
2023/02/16 11:24:22;;;;;;;53.63;25.75;;;;;;;6.85;100.00;102117.06;5009157;28;20034;-79
2023/02/16 11:27:03;;;;;;;54.15;26.30;;;;;;;6.78;100.00;102111.47;4987036;28;20046;-79
2023/02/16 11:29:29;;;;;;;58.72;26.73;;;;;;;6.79;100.00;102103.66;4992395;28;20030;-79
2023/02/16 11:31:56;;;;;;;55.65;25.42;;;;;;;7.11;100.00;102090.41;4972743;28;20611;-79
2023/02/16 11:34:34;;;;;;;58.45;24.98;;;;;;;7.28;100.00;102107.34;5006688;28;20042;-79
2023/02/16 11:37:04;;;;;;;52.40;24.52;;;;;;;7.35;99.92;102100.84;5005637;28;20034;-80
2023/02/16 11:39:35;;;;;;;47.55;21.85;;;;;;;7.42;99.75;102093.50;5009795;28;20469;-80
2023/02/16 11:42:18;;;;;;;49.83;23.30;;;;;;;7.57;98.00;102086.47;4989651;28;20117;-79
2023/02/16 11:44:49;;;;;;;;;;;;;;;7.51;98.73;102085.13;4974604;28;20161;-79
2023/02/16 11:47:23;;;;;;;50.00;24.10;;;;;;;7.54;99.49;102091.84;5021928;28;19918;-79
2023/02/16 11:50:05;;;;;;;42.65;21.67;;;;;;;7.58;98.54;102095.88;5023346;28;20442;-79
2023/02/16 11:52:31;;;;;;;45.83;22.23;;;;;;;7.57;98.26;102087.31;4993910;28;20589;-79
2023/02/16 11:54:59;;;;;;;46.90;22.50;;;;;;;7.53;98.83;102078.09;5023443;28;20084;-79
2023/02/16 11:57:36;;;;;;;43.65;22.33;;;;;;;7.66;98.86;102074.69;5010579;28;20045;-79
2023/02/16 12:00:14;;;;;;;44.75;22.48;;;;;;;7.64;98.74;102077.38;4989958;28;20089;-79
2023/02/16 12:03:12;;;;;;;46.03;21.58;;;;;;;7.78;98.01;102072.09;4993196;28;20064;-80
2023/02/16 12:06:01;;;;;;;43.78;21.02;;;;;;;7.72;98.03;102071.69;5006544;28;20030;-79
2023/02/16 12:08:51;;;;;;;45.90;21.63;;;;;;;7.79;97.86;102078.91;5006114;28;20120;-79